Califon, New Jersey
Current Conditions -  °F | °C
As of 9:53 PM on Wednesday 26 Nov 2014 (Local Time) from KSMQ Reporting Station
Overcast Overcast  
Wind Chill:   Ceiling: 4900
Heat Index:   Visibility: 10mi
Dew Point: -1°   Wind: 6mph
Humidity: 82%   Direction: 350°N
Pressure: 29.83"   Gusts: NA
Location:  40.72°N, 74.84°W
Report Text: KSMQ 270253Z AUTO 35005KT 10SM OVC049 02/M01 A2983 RMK AO2 UPB04E32RAB38E47 SLP103 P0007 60021 T00221006 55003
Loading
Personal Weather Stations






























Interactive Weather Map New forecast layout! Learn more

10-Day Weather Forecast

Advertisements
Track Severe Weather on mobile